sensor_id;sensor_type;location;lat;lon;timestamp;pressure;altitude;pressure_sealevel;temperature;humidity
48606;BME280;8482;54.396;18.590;2023-04-25T04:32:31;100112.56;;;11.24;72.74
48606;BME280;8482;54.396;18.590;2023-04-25T04:34:58;100099.56;;;11.21;73.24
48606;BME280;8482;54.396;18.590;2023-04-25T04:37:25;100096.91;;;11.21;73.24
48606;BME280;8482;54.396;18.590;2023-04-25T04:39:50;100106.84;;;11.18;73.73
48606;BME280;8482;54.396;18.590;2023-04-25T04:42:17;100112.16;;;11.18;73.58
48606;BME280;8482;54.396;18.590;2023-04-25T04:44:43;100104.03;;;11.20;73.20
48606;BME280;8482;54.396;18.590;2023-04-25T04:47:10;100113.41;;;11.24;72.48
48606;BME280;8482;54.396;18.590;2023-04-25T04:49:36;100103.34;;;11.18;72.62
48606;BME280;8482;54.396;18.590;2023-04-25T04:52:02;100106.13;;;11.16;72.02
48606;BME280;8482;54.396;18.590;2023-04-25T04:54:27;100108.38;;;11.11;72.49
48606;BME280;8482;54.396;18.590;2023-04-25T04:56:53;100114.25;;;11.05;73.37
48606;BME280;8482;54.396;18.590;2023-04-25T04:59:19;100116.34;;;11.01;73.51
48606;BME280;8482;54.396;18.590;2023-04-25T05:01:45;100109.78;;;10.96;73.90
48606;BME280;8482;54.396;18.590;2023-04-25T05:04:12;100110.50;;;10.98;73.55
48606;BME280;8482;54.396;18.590;2023-04-25T05:06:38;100105.84;;;11.00;73.17
48606;BME280;8482;54.396;18.590;2023-04-25T05:09:04;100106.00;;;10.98;73.65
48606;BME280;8482;54.396;18.590;2023-04-25T05:11:30;100106.16;;;10.97;73.15
48606;BME280;8482;54.396;18.590;2023-04-25T05:13:55;100103.34;;;10.98;72.36
48606;BME280;8482;54.396;18.590;2023-04-25T05:16:21;100103.63;;;10.95;72.74
48606;BME280;8482;54.396;18.590;2023-04-25T05:18:47;100107.41;;;10.93;72.78
48606;BME280;8482;54.396;18.590;2023-04-25T05:21:13;100104.06;;;10.91;73.09
48606;BME280;8482;54.396;18.590;2023-04-25T05:23:39;100113.25;;;10.96;72.54
48606;BME280;8482;54.396;18.590;2023-04-25T05:26:05;100108.66;;;10.98;72.32
48606;BME280;8482;54.396;18.590;2023-04-25T05:28:31;100108.94;;;10.95;72.04
48606;BME280;8482;54.396;18.590;2023-04-25T05:30:57;100101.69;;;10.97;71.42
48606;BME280;8482;54.396;18.590;2023-04-25T05:33:23;100126.69;;;10.95;71.26
48606;BME280;8482;54.396;18.590;2023-04-25T05:35:49;100113.97;;;10.98;71.35
48606;BME280;8482;54.396;18.590;2023-04-25T05:38:15;100134.75;;;10.93;71.58
48606;BME280;8482;54.396;18.590;2023-04-25T05:40:41;100142.16;;;10.89;71.90
48606;BME280;8482;54.396;18.590;2023-04-25T05:43:07;100138.00;;;10.87;72.13
48606;BME280;8482;54.396;18.590;2023-04-25T05:45:33;100145.78;;;10.88;72.19
48606;BME280;8482;54.396;18.590;2023-04-25T05:47:59;100153.63;;;10.90;71.84
48606;BME280;8482;54.396;18.590;2023-04-25T05:50:25;100157.25;;;10.89;72.29
48606;BME280;8482;54.396;18.590;2023-04-25T05:52:51;100157.81;;;10.93;71.76
48606;BME280;8482;54.396;18.590;2023-04-25T05:55:17;100158.78;;;10.92;71.11
48606;BME280;8482;54.396;18.590;2023-04-25T05:57:43;100153.91;;;10.87;71.72
48606;BME280;8482;54.396;18.590;2023-04-25T06:00:13;100155.72;;;10.86;71.25
48606;BME280;8482;54.396;18.590;2023-04-25T06:02:40;100164.25;;;10.90;70.98
48606;BME280;8482;54.396;18.590;2023-04-25T06:05:06;100162.69;;;10.87;70.37
48606;BME280;8482;54.396;18.590;2023-04-25T06:07:32;100161.88;;;10.87;70.32
48606;BME280;8482;54.396;18.590;2023-04-25T06:09:59;100180.72;;;10.84;70.52
48606;BME280;8482;54.396;18.590;2023-04-25T06:12:26;100162.41;;;10.81;69.28
48606;BME280;8482;54.396;18.590;2023-04-25T06:14:52;100163.38;;;10.80;68.73
48606;BME280;8482;54.396;18.590;2023-04-25T06:17:18;100160.72;;;10.80;67.95
48606;BME280;8482;54.396;18.590;2023-04-25T06:19:43;100171.03;;;10.73;68.11
48606;BME280;8482;54.396;18.590;2023-04-25T06:22:10;100171.19;;;10.71;67.75
48606;BME280;8482;54.396;18.590;2023-04-25T06:24:36;100166.41;;;10.65;67.59
48606;BME280;8482;54.396;18.590;2023-04-25T06:27:02;100167.28;;;10.66;67.51
48606;BME280;8482;54.396;18.590;2023-04-25T06:29:28;100174.66;;;10.62;67.45
48606;BME280;8482;54.396;18.590;2023-04-25T06:31:53;100185.41;;;10.61;67.77
48606;BME280;8482;54.396;18.590;2023-04-25T06:34:19;100178.56;;;10.58;68.09
48606;BME280;8482;54.396;18.590;2023-04-25T06:36:46;100191.81;;;10.58;68.47
48606;BME280;8482;54.396;18.590;2023-04-25T06:39:12;100190.13;;;10.57;68.35
48606;BME280;8482;54.396;18.590;2023-04-25T06:41:37;100184.97;;;10.55;68.60
48606;BME280;8482;54.396;18.590;2023-04-25T06:44:03;100182.34;;;10.55;68.99
48606;BME280;8482;54.396;18.590;2023-04-25T06:46:29;100179.53;;;10.57;69.22
48606;BME280;8482;54.396;18.590;2023-04-25T06:48:55;100181.78;;;10.62;69.25
48606;BME280;8482;54.396;18.590;2023-04-25T06:51:21;100185.28;;;10.62;69.08
48606;BME280;8482;54.396;18.590;2023-04-25T06:53:47;100192.81;;;10.67;69.31
48606;BME280;8482;54.396;18.590;2023-04-25T06:56:12;100197.00;;;10.69;69.09
48606;BME280;8482;54.396;18.590;2023-04-25T06:58:38;100191.59;;;10.71;69.25
48606;BME280;8482;54.396;18.590;2023-04-25T07:01:04;100183.06;;;10.77;68.55
48606;BME280;8482;54.396;18.590;2023-04-25T07:03:30;100193.41;;;10.80;68.62
48606;BME280;8482;54.396;18.590;2023-04-25T07:05:56;100206.69;;;10.80;67.49
48606;BME280;8482;54.396;18.590;2023-04-25T07:08:22;100199.69;;;10.79;67.42
48606;BME280;8482;54.396;18.590;2023-04-25T07:10:47;100199.84;;;10.78;67.66
48606;BME280;8482;54.396;18.590;2023-04-25T07:13:13;100208.63;;;10.78;67.51
48606;BME280;8482;54.396;18.590;2023-04-25T07:15:39;100206.13;;;10.77;67.12
48606;BME280;8482;54.396;18.590;2023-04-25T07:18:05;100211.53;;;10.75;66.93
48606;BME280;8482;54.396;18.590;2023-04-25T07:20:31;100204.28;;;10.77;67.05
48606;BME280;8482;54.396;18.590;2023-04-25T07:22:58;100207.91;;;10.76;67.04
48606;BME280;8482;54.396;18.590;2023-04-25T07:25:24;100214.91;;;10.77;67.12
48606;BME280;8482;54.396;18.590;2023-04-25T07:27:50;100212.69;;;10.82;66.65
48606;BME280;8482;54.396;18.590;2023-04-25T07:30:16;100224.13;;;10.83;66.60
48606;BME280;8482;54.396;18.590;2023-04-25T07:32:42;100230.16;;;10.85;66.58
48606;BME280;8482;54.396;18.590;2023-04-25T07:35:08;100224.00;;;10.84;66.09
48606;BME280;8482;54.396;18.590;2023-04-25T07:37:34;100221.47;;;10.83;65.99
48606;BME280;8482;54.396;18.590;2023-04-25T07:40:02;100225.00;;;10.83;66.30
48606;BME280;8482;54.396;18.590;2023-04-25T07:42:29;100225.00;;;10.83;66.59
48606;BME280;8482;54.396;18.590;2023-04-25T07:44:55;100226.78;;;10.83;66.42
48606;BME280;8482;54.396;18.590;2023-04-25T07:47:21;100232.66;;;10.86;66.26
48606;BME280;8482;54.396;18.590;2023-04-25T07:49:47;100235.19;;;10.88;66.00
48606;BME280;8482;54.396;18.590;2023-04-25T07:52:14;100237.69;;;10.89;65.85
48606;BME280;8482;54.396;18.590;2023-04-25T07:54:39;100235.91;;;10.90;65.49
48606;BME280;8482;54.396;18.590;2023-04-25T07:57:05;100238.41;;;10.92;65.01
48606;BME280;8482;54.396;18.590;2023-04-25T07:59:34;100235.47;;;10.95;64.31
48606;BME280;8482;54.396;18.590;2023-04-25T08:02:00;100229.31;;;10.94;63.61
48606;BME280;8482;54.396;18.590;2023-04-25T08:04:26;100242.47;;;10.96;63.23
48606;BME280;8482;54.396;18.590;2023-04-25T08:06:52;100239.81;;;10.96;63.52
48606;BME280;8482;54.396;18.590;2023-04-25T08:09:20;100245.94;;;10.96;63.40
48606;BME280;8482;54.396;18.590;2023-04-25T08:11:46;100248.34;;;10.99;63.28
48606;BME280;8482;54.396;18.590;2023-04-25T08:14:13;100248.78;;;11.04;63.13
48606;BME280;8482;54.396;18.590;2023-04-25T08:16:39;100241.22;;;11.10;63.10
48606;BME280;8482;54.396;18.590;2023-04-25T08:19:05;100251.44;;;11.14;62.62
48606;BME280;8482;54.396;18.590;2023-04-25T08:21:31;100249.47;;;11.16;62.60
48606;BME280;8482;54.396;18.590;2023-04-25T08:23:58;100250.34;;;11.17;62.91
48606;BME280;8482;54.396;18.590;2023-04-25T08:26:25;100261.50;;;11.21;62.53
48606;BME280;8482;54.396;18.590;2023-04-25T08:28:51;100249.78;;;11.23;61.94
48606;BME280;8482;54.396;18.590;2023-04-25T08:31:17;100254.81;;;11.26;61.55
48606;BME280;8482;54.396;18.590;2023-04-25T08:33:43;100260.81;;;11.28;61.74
48606;BME280;8482;54.396;18.590;2023-04-25T08:36:11;100258.72;;;11.32;61.20
48606;BME280;8482;54.396;18.590;2023-04-25T08:38:37;100266.28;;;11.37;61.56
48606;BME280;8482;54.396;18.590;2023-04-25T08:41:04;100258.16;;;11.38;61.27
48606;BME280;8482;54.396;18.590;2023-04-25T08:43:31;100270.06;;;11.44;60.59
48606;BME280;8482;54.396;18.590;2023-04-25T08:46:01;100272.72;;;11.44;61.39
48606;BME280;8482;54.396;18.590;2023-04-25T08:48:28;100271.44;;;11.48;61.58
48606;BME280;8482;54.396;18.590;2023-04-25T08:50:57;100275.66;;;11.50;61.81
48606;BME280;8482;54.396;18.590;2023-04-25T08:53:31;100282.25;;;11.56;62.00
48606;BME280;8482;54.396;18.590;2023-04-25T08:56:00;100278.59;;;11.57;60.83
48606;BME280;8482;54.396;18.590;2023-04-25T08:58:28;100277.47;;;11.60;61.09
48606;BME280;8482;54.396;18.590;2023-04-25T09:00:54;100293.97;;;11.63;60.97
48606;BME280;8482;54.396;18.590;2023-04-25T09:03:20;100290.06;;;11.68;61.17
48606;BME280;8482;54.396;18.590;2023-04-25T09:05:46;100291.44;;;11.72;61.23
48606;BME280;8482;54.396;18.590;2023-04-25T09:08:12;100296.38;;;11.76;61.43
48606;BME280;8482;54.396;18.590;2023-04-25T09:10:40;100295.22;;;11.79;61.20
48606;BME280;8482;54.396;18.590;2023-04-25T09:13:14;100303.75;;;11.83;60.94
48606;BME280;8482;54.396;18.590;2023-04-25T09:15:52;100304.31;;;11.86;60.79
48606;BME280;8482;54.396;18.590;2023-04-25T09:18:31;100306.84;;;11.88;60.66
48606;BME280;8482;54.396;18.590;2023-04-25T09:21:09;100311.88;;;11.91;60.38
48606;BME280;8482;54.396;18.590;2023-04-25T09:23:46;100316.06;;;11.93;59.83
48606;BME280;8482;54.396;18.590;2023-04-25T09:26:19;100312.56;;;11.93;60.13
48606;BME280;8482;54.396;18.590;2023-04-25T09:28:46;100318.72;;;11.93;60.00
48606;BME280;8482;54.396;18.590;2023-04-25T09:31:22;100314.13;;;11.95;59.76
48606;BME280;8482;54.396;18.590;2023-04-25T09:33:49;100319.28;;;11.97;59.69
48606;BME280;8482;54.396;18.590;2023-04-25T09:36:15;100316.78;;;11.95;59.70
48606;BME280;8482;54.396;18.590;2023-04-25T09:38:45;100325.34;;;11.99;60.02
48606;BME280;8482;54.396;18.590;2023-04-25T09:41:11;100320.84;;;12.00;60.24
48606;BME280;8482;54.396;18.590;2023-04-25T09:43:39;100320.09;;;11.98;60.27
48606;BME280;8482;54.396;18.590;2023-04-25T09:46:09;100323.22;;;12.03;60.15
48606;BME280;8482;54.396;18.590;2023-04-25T09:48:36;100321.13;;;12.06;60.32
48606;BME280;8482;54.396;18.590;2023-04-25T09:51:10;100322.66;;;12.09;60.08
48606;BME280;8482;54.396;18.590;2023-04-25T09:53:42;100331.19;;;12.13;59.43
48606;BME280;8482;54.396;18.590;2023-04-25T09:56:11;100326.69;;;12.13;59.54
48606;BME280;8482;54.396;18.590;2023-04-25T09:58:39;100329.25;;;12.15;58.90
48606;BME280;8482;54.396;18.590;2023-04-25T10:01:11;100328.38;;;12.14;58.88
48606;BME280;8482;54.396;18.590;2023-04-25T10:03:39;100330.06;;;12.15;59.93
48606;BME280;8482;54.396;18.590;2023-04-25T10:06:18;100332.44;;;12.18;59.52
48606;BME280;8482;54.396;18.590;2023-04-25T10:08:50;100324.47;;;12.18;59.41
48606;BME280;8482;54.396;18.590;2023-04-25T10:11:17;100338.19;;;12.23;59.26
48606;BME280;8482;54.396;18.590;2023-04-25T10:13:45;100333.69;;;12.24;59.04
48606;BME280;8482;54.396;18.590;2023-04-25T10:16:11;100330.88;;;12.25;58.89
48606;BME280;8482;54.396;18.590;2023-04-25T10:18:37;100340.41;;;12.28;59.41
48606;BME280;8482;54.396;18.590;2023-04-25T10:21:04;100336.34;;;12.34;59.20
48606;BME280;8482;54.396;18.590;2023-04-25T10:23:32;100340.81;;;12.33;58.87
48606;BME280;8482;54.396;18.590;2023-04-25T10:26:00;100343.19;;;12.36;58.86
48606;BME280;8482;54.396;18.590;2023-04-25T10:28:26;100338.03;;;12.35;58.22
48606;BME280;8482;54.396;18.590;2023-04-25T10:31:06;100348.34;;;12.38;58.57
48606;BME280;8482;54.396;18.590;2023-04-25T10:33:38;100344.16;;;12.35;57.67
48606;BME280;8482;54.396;18.590;2023-04-25T10:36:34;100348.25;;;12.30;57.48
48606;BME280;8482;54.396;18.590;2023-04-25T10:39:07;100349.09;;;12.30;57.64
48606;BME280;8482;54.396;18.590;2023-04-25T10:41:57;100356.38;;;12.28;57.75
48606;BME280;8482;54.396;18.590;2023-04-25T10:44:30;100363.38;;;12.29;58.12
48606;BME280;8482;54.396;18.590;2023-04-25T10:46:58;100356.38;;;12.28;58.68
48606;BME280;8482;54.396;18.590;2023-04-25T10:49:41;100360.97;;;12.36;59.39
48606;BME280;8482;54.396;18.590;2023-04-25T10:52:25;100370.34;;;12.40;58.89
48606;BME280;8482;54.396;18.590;2023-04-25T10:54:54;100366.69;;;12.41;58.51
48606;BME280;8482;54.396;18.590;2023-04-25T10:57:50;100373.97;;;12.39;58.22
48606;BME280;8482;54.396;18.590;2023-04-25T11:00:19;100364.31;;;12.38;58.67
48606;BME280;8482;54.396;18.590;2023-04-25T11:02:53;100372.28;;;12.38;58.13
48606;BME280;8482;54.396;18.590;2023-04-25T11:05:39;100371.19;;;12.40;58.56
48606;BME280;8482;54.396;18.590;2023-04-25T11:08:11;100370.22;;;12.41;57.64
48606;BME280;8482;54.396;18.590;2023-04-25T11:10:40;100377.22;;;12.43;57.99
48606;BME280;8482;54.396;18.590;2023-04-25T11:13:05;100375.38;;;12.43;57.71
48606;BME280;8482;54.396;18.590;2023-04-25T11:15:31;100375.09;;;12.46;58.11
48606;BME280;8482;54.396;18.590;2023-04-25T11:17:57;100365.97;;;12.49;58.48
48606;BME280;8482;54.396;18.590;2023-04-25T11:20:25;100367.22;;;12.54;58.47
48606;BME280;8482;54.396;18.590;2023-04-25T11:22:51;100374.22;;;12.55;59.02
48606;BME280;8482;54.396;18.590;2023-04-25T11:25:17;100375.75;;;12.58;58.99
48606;BME280;8482;54.396;18.590;2023-04-25T11:27:50;100374.78;;;12.59;59.73
48606;BME280;8482;54.396;18.590;2023-04-25T11:30:17;100377.16;;;12.62;59.59
48606;BME280;8482;54.396;18.590;2023-04-25T11:32:43;100376.34;;;12.62;59.74
48606;BME280;8482;54.396;18.590;2023-04-25T11:35:10;100379.81;;;12.62;60.41
48606;BME280;8482;54.396;18.590;2023-04-25T11:37:39;100379.81;;;12.62;60.61
48606;BME280;8482;54.396;18.590;2023-04-25T11:40:07;100372.53;;;12.64;60.63
48606;BME280;8482;54.396;18.590;2023-04-25T11:42:43;100384.00;;;12.65;60.72
48606;BME280;8482;54.396;18.590;2023-04-25T11:45:10;100397.47;;;12.63;60.48
48606;BME280;8482;54.396;18.590;2023-04-25T11:47:36;100389.06;;;12.58;60.15
48606;BME280;8482;54.396;18.590;2023-04-25T11:50:06;100390.06;;;12.57;60.35
48606;BME280;8482;54.396;18.590;2023-04-25T11:52:42;100397.34;;;12.55;60.03
48606;BME280;8482;54.396;18.590;2023-04-25T11:55:18;100393.44;;;12.49;60.71
48606;BME280;8482;54.396;18.590;2023-04-25T11:57:47;100401.28;;;12.51;61.36
48606;BME280;8482;54.396;18.590;2023-04-25T12:00:18;100398.88;;;12.48;61.98
48606;BME280;8482;54.396;18.590;2023-04-25T12:02:47;100400.72;;;12.47;61.37
48606;BME280;8482;54.396;18.590;2023-04-25T12:05:15;100399.75;;;12.48;61.52
48606;BME280;8482;54.396;18.590;2023-04-25T12:07:42;100402.53;;;12.47;61.49
48606;BME280;8482;54.396;18.590;2023-04-25T12:10:14;100399.88;;;12.47;60.97
48606;BME280;8482;54.396;18.590;2023-04-25T12:12:45;100408.00;;;12.45;60.65
48606;BME280;8482;54.396;18.590;2023-04-25T12:15:24;100407.16;;;12.45;59.19
48606;BME280;8482;54.396;18.590;2023-04-25T12:17:52;100409.13;;;12.43;58.84
48606;BME280;8482;54.396;18.590;2023-04-25T12:20:23;100410.13;;;12.41;58.06
48606;BME280;8482;54.396;18.590;2023-04-25T12:22:50;100406.47;;;12.43;57.22
48606;BME280;8482;54.396;18.590;2023-04-25T12:25:43;100411.91;;;12.41;56.64
48606;BME280;8482;54.396;18.590;2023-04-25T12:28:23;100408.44;;;12.40;57.77
48606;BME280;8482;54.396;18.590;2023-04-25T12:33:28;100414.72;;;12.49;59.71
48606;BME280;8482;54.396;18.590;2023-04-25T12:35:55;100411.75;;;12.52;59.92
48606;BME280;8482;54.396;18.590;2023-04-25T12:38:26;100414.41;;;12.52;59.08
48606;BME280;8482;54.396;18.590;2023-04-25T12:40:53;100420.72;;;12.51;59.55
48606;BME280;8482;54.396;18.590;2023-04-25T12:43:19;100406.75;;;12.49;60.45
48606;BME280;8482;54.396;18.590;2023-04-25T12:45:50;100421.41;;;12.53;61.42
48606;BME280;8482;54.396;18.590;2023-04-25T12:48:17;100413.75;;;12.50;61.13
48606;BME280;8482;54.396;18.590;2023-04-25T12:50:43;100418.38;;;12.48;60.88
48606;BME280;8482;54.396;18.590;2023-04-25T12:53:10;100421.84;;;12.49;60.92
48606;BME280;8482;54.396;18.590;2023-04-25T12:55:37;100419.19;;;12.49;60.91
48606;BME280;8482;54.396;18.590;2023-04-25T12:58:03;100418.38;;;12.48;61.14
48606;BME280;8482;54.396;18.590;2023-04-25T13:00:30;100413.16;;;12.47;61.93
48606;BME280;8482;54.396;18.590;2023-04-25T13:02:56;100417.66;;;12.46;63.24
48606;BME280;8482;54.396;18.590;2023-04-25T13:05:23;100410.81;;;12.44;63.41
48606;BME280;8482;54.396;18.590;2023-04-25T13:07:49;100412.63;;;12.43;63.53
48606;BME280;8482;54.396;18.590;2023-04-25T13:10:15;100417.78;;;12.45;64.12
48606;BME280;8482;54.396;18.590;2023-04-25T13:12:41;100420.44;;;12.45;64.22
48606;BME280;8482;54.396;18.590;2023-04-25T13:15:07;100418.78;;;12.44;64.13
48606;BME280;8482;54.396;18.590;2023-04-25T13:17:34;100421.56;;;12.42;63.60
48606;BME280;8482;54.396;18.590;2023-04-25T13:20:00;100425.09;;;12.43;63.83
48606;BME280;8482;54.396;18.590;2023-04-25T13:22:26;100414.56;;;12.41;63.00
48606;BME280;8482;54.396;18.590;2023-04-25T13:24:52;100410.53;;;12.37;62.71
48606;BME280;8482;54.396;18.590;2023-04-25T13:27:17;100416.25;;;12.42;63.00
48606;BME280;8482;54.396;18.590;2023-04-25T13:29:44;100420.31;;;12.46;64.16
48606;BME280;8482;54.396;18.590;2023-04-25T13:32:09;100421.84;;;12.49;63.93
48606;BME280;8482;54.396;18.590;2023-04-25T13:34:35;100409.41;;;12.49;63.66
48606;BME280;8482;54.396;18.590;2023-04-25T13:37:01;100416.97;;;12.54;63.84
48606;BME280;8482;54.396;18.590;2023-04-25T13:39:27;100399.44;;;12.51;63.84
48606;BME280;8482;54.396;18.590;2023-04-25T13:41:52;100408.69;;;12.57;64.72
48606;BME280;8482;54.396;18.590;2023-04-25T13:44:18;100406.59;;;12.61;64.48
48606;BME280;8482;54.396;18.590;2023-04-25T13:46:44;100412.28;;;12.66;64.89
48606;BME280;8482;54.396;18.590;2023-04-25T13:49:11;100416.34;;;12.70;63.82
48606;BME280;8482;54.396;18.590;2023-04-25T13:51:37;100418.03;;;12.71;63.50
48606;BME280;8482;54.396;18.590;2023-04-25T13:54:03;100406.25;;;12.73;63.29
48606;BME280;8482;54.396;18.590;2023-04-25T13:56:29;100411.16;;;12.78;63.51
48606;BME280;8482;54.396;18.590;2023-04-25T13:58:55;100401.06;;;12.82;63.64
48606;BME280;8482;54.396;18.590;2023-04-25T14:01:22;100411.97;;;12.88;64.52
48606;BME280;8482;54.396;18.590;2023-04-25T14:03:48;100407.75;;;12.86;64.32
48606;BME280;8482;54.396;18.590;2023-04-25T14:06:13;100408.47;;;12.88;64.24
48606;BME280;8482;54.396;18.590;2023-04-25T14:08:42;100415.63;;;12.87;64.12
48606;BME280;8482;54.396;18.590;2023-04-25T14:11:08;100412.09;;;12.87;63.84
48606;BME280;8482;54.396;18.590;2023-04-25T14:13:34;100409.59;;;12.85;63.89
48606;BME280;8482;54.396;18.590;2023-04-25T14:16:00;100409.72;;;12.84;63.41
48606;BME280;8482;54.396;18.590;2023-04-25T14:18:26;100408.19;;;12.81;63.14
48606;BME280;8482;54.396;18.590;2023-04-25T14:20:51;100399.41;;;12.81;63.49
48606;BME280;8482;54.396;18.590;2023-04-25T14:23:17;100398.53;;;12.80;62.92
48606;BME280;8482;54.396;18.590;2023-04-25T14:25:43;100422.66;;;12.79;62.70
48606;BME280;8482;54.396;18.590;2023-04-25T14:28:10;100439.75;;;12.76;61.90
48606;BME280;8482;54.396;18.590;2023-04-25T14:30:36;100437.50;;;12.71;56.83
48606;BME280;8482;54.396;18.590;2023-04-25T14:33:02;100433.91;;;12.53;55.46
48606;BME280;8482;54.396;18.590;2023-04-25T14:35:28;100441.88;;;12.43;55.76
48606;BME280;8482;54.396;18.590;2023-04-25T14:37:54;100446.63;;;12.30;55.05
48606;BME280;8482;54.396;18.590;2023-04-25T14:40:20;100447.34;;;12.22;55.31
48606;BME280;8482;54.396;18.590;2023-04-25T14:42:48;100457.13;;;12.11;54.53
48606;BME280;8482;54.396;18.590;2023-04-25T14:45:15;100458.63;;;11.94;54.98
48606;BME280;8482;54.396;18.590;2023-04-25T14:47:41;100466.72;;;11.83;55.13
48606;BME280;8482;54.396;18.590;2023-04-25T14:50:07;100455.91;;;11.75;55.99
48606;BME280;8482;54.396;18.590;2023-04-25T14:52:34;100456.19;;;11.72;56.06
48606;BME280;8482;54.396;18.590;2023-04-25T14:55:00;100481.47;;;11.66;56.48
48606;BME280;8482;54.396;18.590;2023-04-25T14:57:32;100480.09;;;11.62;55.87
48606;BME280;8482;54.396;18.590;2023-04-25T14:59:58;100483.84;;;11.59;54.74
48606;BME280;8482;54.396;18.590;2023-04-25T15:02:24;100480.44;;;11.47;55.48
48606;BME280;8482;54.396;18.590;2023-04-25T15:04:51;100487.25;;;11.40;54.99
48606;BME280;8482;54.396;18.590;2023-04-25T15:07:17;100497.84;;;11.30;55.10
48606;BME280;8482;54.396;18.590;2023-04-25T15:09:43;100489.84;;;11.21;54.49
48606;BME280;8482;54.396;18.590;2023-04-25T15:12:09;100486.72;;;11.15;54.65
48606;BME280;8482;54.396;18.590;2023-04-25T15:14:36;100498.13;;;11.06;55.10
48606;BME280;8482;54.396;18.590;2023-04-25T15:17:01;100497.28;;;11.06;54.97
48606;BME280;8482;54.396;18.590;2023-04-25T15:19:27;100501.44;;;10.98;55.20
48606;BME280;8482;54.396;18.590;2023-04-25T15:21:53;100496.28;;;10.97;55.38
48606;BME280;8482;54.396;18.590;2023-04-25T15:24:19;100493.97;;;10.92;54.79
48606;BME280;8482;54.396;18.590;2023-04-25T15:26:45;100493.41;;;10.88;55.13
48606;BME280;8482;54.396;18.590;2023-04-25T15:29:11;100499.69;;;10.87;55.16
48606;BME280;8482;54.396;18.590;2023-04-25T15:31:37;100496.31;;;10.85;54.86
48606;BME280;8482;54.396;18.590;2023-04-25T15:34:03;100495.34;;;10.86;54.65
48606;BME280;8482;54.396;18.590;2023-04-25T15:36:29;100491.88;;;10.86;54.42
48606;BME280;8482;54.396;18.590;2023-04-25T15:38:56;100490.31;;;10.83;54.18
48606;BME280;8482;54.396;18.590;2023-04-25T15:41:24;100491.41;;;10.81;54.06
48606;BME280;8482;54.396;18.590;2023-04-25T15:43:52;100499.34;;;10.81;54.21
48606;BME280;8482;54.396;18.590;2023-04-25T15:46:19;100490.69;;;10.79;54.69
48606;BME280;8482;54.396;18.590;2023-04-25T15:48:46;100503.59;;;10.83;54.50
48606;BME280;8482;54.396;18.590;2023-04-25T15:51:12;100500.78;;;10.85;54.25
48606;BME280;8482;54.396;18.590;2023-04-25T15:53:38;100501.75;;;10.84;54.42
48606;BME280;8482;54.396;18.590;2023-04-25T15:56:04;100500.66;;;10.86;54.03
48606;BME280;8482;54.396;18.590;2023-04-25T15:58:30;100504.16;;;10.87;54.08
48606;BME280;8482;54.396;18.590;2023-04-25T16:00:56;100490.31;;;10.83;53.67
48606;BME280;8482;54.396;18.590;2023-04-25T16:03:22;100491.00;;;10.85;53.58
48606;BME280;8482;54.396;18.590;2023-04-25T16:05:48;100491.16;;;10.84;53.49
48606;BME280;8482;54.396;18.590;2023-04-25T16:08:15;100495.63;;;10.83;53.52
48606;BME280;8482;54.396;18.590;2023-04-25T16:10:41;100515.03;;;10.84;52.70
48606;BME280;8482;54.396;18.590;2023-04-25T16:13:07;100502.88;;;10.81;52.32
48606;BME280;8482;54.396;18.590;2023-04-25T16:15:33;100504.81;;;10.79;52.43
48606;BME280;8482;54.396;18.590;2023-04-25T16:17:59;100498.91;;;10.76;52.22
48606;BME280;8482;54.396;18.590;2023-04-25T16:20:25;100499.31;;;10.71;52.22
48606;BME280;8482;54.396;18.590;2023-04-25T16:22:51;100502.72;;;10.62;52.75
48606;BME280;8482;54.396;18.590;2023-04-25T16:25:17;100503.69;;;10.61;52.62
48606;BME280;8482;54.396;18.590;2023-04-25T16:27:43;100500.59;;;10.55;53.13
48606;BME280;8482;54.396;18.590;2023-04-25T16:30:10;100503.34;;;10.54;53.24
48606;BME280;8482;54.396;18.590;2023-04-25T16:32:37;100506.84;;;10.54;52.74
48606;BME280;8482;54.396;18.590;2023-04-25T16:35:04;100505.41;;;10.50;53.27
48606;BME280;8482;54.396;18.590;2023-04-25T16:37:31;100502.31;;;10.45;53.72
48606;BME280;8482;54.396;18.590;2023-04-25T16:39:56;100505.06;;;10.43;54.05
48606;BME280;8482;54.396;18.590;2023-04-25T16:42:22;100508.69;;;10.42;54.05
48606;BME280;8482;54.396;18.590;2023-04-25T16:44:48;100510.53;;;10.42;54.28
48606;BME280;8482;54.396;18.590;2023-04-25T16:47:14;100506.28;;;10.39;54.50
48606;BME280;8482;54.396;18.590;2023-04-25T16:49:40;100509.94;;;10.38;54.00
48606;BME280;8482;54.396;18.590;2023-04-25T16:52:06;100515.94;;;10.40;54.16
48606;BME280;8482;54.396;18.590;2023-04-25T16:54:32;100516.06;;;10.39;54.46
48606;BME280;8482;54.396;18.590;2023-04-25T16:56:58;100522.19;;;10.39;54.31
48606;BME280;8482;54.396;18.590;2023-04-25T16:59:24;100523.28;;;10.37;54.32
48606;BME280;8482;54.396;18.590;2023-04-25T17:01:50;100525.09;;;10.36;54.60
48606;BME280;8482;54.396;18.590;2023-04-25T17:04:16;100526.06;;;10.35;54.59
48606;BME280;8482;54.396;18.590;2023-04-25T17:06:42;100528.72;;;10.35;53.78
48606;BME280;8482;54.396;18.590;2023-04-25T17:09:09;100523.66;;;10.32;54.14
48606;BME280;8482;54.396;18.590;2023-04-25T17:11:35;100525.34;;;10.33;53.67
48606;BME280;8482;54.396;18.590;2023-04-25T17:14:01;100530.78;;;10.32;53.43
48606;BME280;8482;54.396;18.590;2023-04-25T17:16:35;100531.97;;;10.27;53.60
48606;BME280;8482;54.396;18.590;2023-04-25T17:19:05;100539.06;;;10.27;54.01
48606;BME280;8482;54.396;18.590;2023-04-25T17:21:32;100536.56;;;10.25;53.89
48606;BME280;8482;54.396;18.590;2023-04-25T17:23:58;100547.03;;;10.27;53.99
48606;BME280;8482;54.396;18.590;2023-04-25T17:26:25;100551.66;;;10.25;54.04